Time;durP1;ratioP1;P1;durP2;ratioP2;P2;SDS_P1;SDS_P2;PMS_P1;PMS_P2;Temp;Humidity;BMP_temperature;BMP_pressure;BME280_temperature;BME280_humidity;BME280_pressure;Samples;Min_cycle;Max_cycle;Signal;HPM_P1;HPM_P2
2022/08/02 00:00:41;;;;;;;6.95;5.20;;;;;;;;;;2060869;28;20197;-59
2022/08/02 00:01:42;;;;;;;7.10;5.43;;;;;;;;;;2061555;28;20170;-62
2022/08/02 00:02:43;;;;;;;9.27;5.28;;;;;;;;;;2060162;28;20226;-60
2022/08/02 00:03:43;;;;;;;5.68;5.07;;;;;;;;;;2060097;28;20208;-61
2022/08/02 00:04:44;;;;;;;11.13;5.55;;;;;;;;;;2058737;28;20186;-60
2022/08/02 00:05:45;;;;;;;5.75;4.82;;;;;;;;;;2059772;28;20351;-60
2022/08/02 00:06:45;;;;;;;9.20;5.47;;;;;;;;;;2060294;28;20280;-58
2022/08/02 00:07:45;;;;;;;6.32;5.38;;;;;;;;;;2060974;28;20710;-62
2022/08/02 00:08:46;;;;;;;7.47;5.07;;;;;;;;;;2061926;28;20697;-60
2022/08/02 00:09:46;;;;;;;8.23;5.60;;;;;;;;;;2061437;28;20644;-59
2022/08/02 00:10:46;;;;;;;12.18;6.13;;;;;;;;;;2060767;28;20174;-57
2022/08/02 00:11:47;;;;;;;8.25;5.18;;;;;;;;;;2062014;28;20178;-60
2022/08/02 00:12:47;;;;;;;7.53;4.80;;;;;;;;;;2060947;28;20209;-59
2022/08/02 00:13:48;;;;;;;10.65;5.60;;;;;;;;;;2073853;23;20287;-62
2022/08/02 00:14:48;;;;;;;7.47;5.00;;;;;;;;;;2071198;28;20316;-66
2022/08/02 00:15:48;;;;;;;5.65;4.57;;;;;;;;;;2082197;28;20192;-65
2022/08/02 00:16:49;;;;;;;6.30;5.57;;;;;;;;;;2074153;28;20161;-66
2022/08/02 00:17:49;;;;;;;13.70;5.53;;;;;;;;;;2074739;28;20185;-64
2022/08/02 00:18:49;;;;;;;9.30;5.35;;;;;;;;;;2081145;28;20169;-65
2022/08/02 00:19:50;;;;;;;9.95;5.32;;;;;;;;;;2082567;28;20168;-65
2022/08/02 00:20:50;;;;;;;6.57;5.20;;;;;;;;;;2082417;28;20204;-66
2022/08/02 00:21:50;;;;;;;8.88;5.68;;;;;;;;;;2081919;28;20172;-66
2022/08/02 00:22:51;;;;;;;6.20;5.55;;;;;;;;;;2076789;28;20184;-65
2022/08/02 00:23:51;;;;;;;7.57;5.22;;;;;;;;;;2072000;28;20173;-63
2022/08/02 00:24:51;;;;;;;14.30;5.60;;;;;;;;;;2065681;28;20181;-65
2022/08/02 00:25:52;;;;;;;8.50;5.32;;;;;;;;;;2066182;28;20166;-63
2022/08/02 00:26:52;;;;;;;9.82;5.53;;;;;;;;;;2066515;28;20586;-64
2022/08/02 00:27:52;;;;;;;10.00;5.30;;;;;;;;;;2066367;28;20192;-63
2022/08/02 00:28:52;;;;;;;5.80;4.90;;;;;;;;;;2065686;28;20169;-61
2022/08/02 00:29:54;;;;;;;7.07;5.28;;;;;;;;;;2065694;28;20170;-66
2022/08/02 00:30:56;;;;;;;7.18;5.70;;;;;;;;;;2065655;28;20220;-66
2022/08/02 00:31:56;;;;;;;10.88;5.38;;;;;;;;;;2065732;28;20271;-65
2022/08/02 00:32:57;;;;;;;5.65;5.00;;;;;;;;;;2073901;28;20173;-64
2022/08/02 00:33:57;;;;;;;7.05;5.55;;;;;;;;;;2073925;28;20609;-65
2022/08/02 00:34:57;;;;;;;10.85;5.78;;;;;;;;;;2074097;28;20311;-66
2022/08/02 00:35:58;;;;;;;8.75;5.28;;;;;;;;;;2074328;28;20641;-66
2022/08/02 00:36:58;;;;;;;8.52;5.35;;;;;;;;;;2074531;28;20173;-65
2022/08/02 00:37:59;;;;;;;7.55;5.85;;;;;;;;;;2074264;28;20172;-65
2022/08/02 00:38:59;;;;;;;6.13;5.60;;;;;;;;;;2074399;28;20549;-65
2022/08/02 00:40:01;;;;;;;10.82;6.15;;;;;;;;;;2074192;28;20169;-67
2022/08/02 00:41:01;;;;;;;8.02;5.97;;;;;;;;;;2074405;28;20212;-65
2022/08/02 00:42:01;;;;;;;5.68;5.13;;;;;;;;;;2071012;28;20180;-65
2022/08/02 00:43:05;;;;;;;7.97;5.80;;;;;;;;;;2066311;28;20157;-66
2022/08/02 00:44:05;;;;;;;9.93;5.70;;;;;;;;;;2065298;28;20224;-65
2022/08/02 00:45:06;;;;;;;6.00;5.18;;;;;;;;;;2066220;28;20630;-66
2022/08/02 00:46:06;;;;;;;7.75;5.63;;;;;;;;;;2066262;28;20166;-65
2022/08/02 00:47:06;;;;;;;7.18;5.55;;;;;;;;;;2065962;28;20173;-65
2022/08/02 00:48:08;;;;;;;9.30;7.78;;;;;;;;;;2067753;28;20173;-66
2022/08/02 00:49:08;;;;;;;16.92;7.25;;;;;;;;;;2074408;28;20685;-65
2022/08/02 00:50:09;;;;;;;10.43;6.68;;;;;;;;;;2072770;28;20171;-65
2022/08/02 00:51:10;;;;;;;9.05;6.35;;;;;;;;;;2066340;28;20166;-65
2022/08/02 00:52:10;;;;;;;10.05;6.00;;;;;;;;;;2066291;28;20204;-67
2022/08/02 00:53:10;;;;;;;6.78;5.80;;;;;;;;;;2066515;28;20162;-65
2022/08/02 00:54:11;;;;;;;12.68;6.75;;;;;;;;;;2066343;28;20193;-67
2022/08/02 00:55:12;;;;;;;9.45;6.45;;;;;;;;;;2067475;28;20158;-65
2022/08/02 00:56:12;;;;;;;7.88;6.20;;;;;;;;;;2066684;28;20189;-66
2022/08/02 00:57:12;;;;;;;10.25;5.63;;;;;;;;;;2067069;28;20736;-65
2022/08/02 00:58:13;;;;;;;10.70;6.13;;;;;;;;;;2066752;28;20802;-66
2022/08/02 00:59:13;;;;;;;8.32;6.30;;;;;;;;;;2067249;28;20165;-65
2022/08/02 01:00:14;;;;;;;9.55;6.50;;;;;;;;;;2066746;28;20635;-64
2022/08/02 01:01:14;;;;;;;12.63;7.00;;;;;;;;;;2067368;28;20189;-65
2022/08/02 01:02:14;;;;;;;9.07;7.05;;;;;;;;;;2066866;28;20248;-65
2022/08/02 01:03:15;;;;;;;15.18;7.18;;;;;;;;;;2074885;28;20252;-66
2022/08/02 01:04:15;;;;;;;10.75;6.95;;;;;;;;;;2073629;28;20696;-65
2022/08/02 01:05:16;;;;;;;12.23;7.20;;;;;;;;;;2067219;28;20251;-66
2022/08/02 01:06:16;;;;;;;11.73;6.95;;;;;;;;;;2067255;28;20182;-65
2022/08/02 01:07:17;;;;;;;7.70;6.43;;;;;;;;;;2067135;28;20237;-65
2022/08/02 01:08:17;;;;;;;15.20;6.85;;;;;;;;;;2066864;28;20208;-65
2022/08/02 01:09:18;;;;;;;15.30;7.10;;;;;;;;;;2066442;28;20684;-66
2022/08/02 01:10:18;;;;;;;9.45;7.68;;;;;;;;;;2066003;28;20192;-64
2022/08/02 01:11:18;;;;;;;11.70;7.18;;;;;;;;;;2065172;28;20185;-63
2022/08/02 01:12:19;;;;;;;8.73;6.90;;;;;;;;;;2065544;28;20565;-65
2022/08/02 01:13:20;;;;;;;10.73;7.63;;;;;;;;;;2065686;28;20173;-66
2022/08/02 01:14:23;;;;;;;10.38;7.25;;;;;;;;;;2064728;28;20717;-65
2022/08/02 01:15:24;;;;;;;11.77;7.78;;;;;;;;;;2065753;28;20181;-65
2022/08/02 01:16:27;;;;;;;8.57;7.00;;;;;;;;;;2065885;28;20169;-65
2022/08/02 01:17:33;;;;;;;9.48;7.63;;;;;;;;;;2065742;28;20281;-65
2022/08/02 01:18:37;;;;;;;9.93;7.95;;;;;;;;;;2065807;28;20192;-65
2022/08/02 01:19:37;;;;;;;10.25;7.53;;;;;;;;;;2065650;28;20166;-65
2022/08/02 01:20:56;;;;;;;11.05;7.43;;;;;;;;;;2065578;28;20205;-66
2022/08/02 01:22:11;;;;;;;11.93;7.78;;;;;;;;;;2065658;28;20161;-66
2022/08/02 01:23:11;;;;;;;11.00;7.35;;;;;;;;;;2055175;28;20290;-65
2022/08/02 01:24:30;;;;;;;9.13;7.70;;;;;;;;;;2056186;28;20230;-66
2022/08/02 01:25:42;;;;;;;11.95;7.75;;;;;;;;;;2057641;28;20174;-66
2022/08/02 01:26:49;;;;;;;9.80;7.47;;;;;;;;;;2057755;28;20177;-64
2022/08/02 01:27:52;;;;;;;12.55;7.90;;;;;;;;;;2057592;28;20178;-65
2022/08/02 01:29:10;;;;;;;11.88;7.72;;;;;;;;;;2057095;28;20565;-66
2022/08/02 01:30:11;;;;;;;8.18;7.38;;;;;;;;;;2057036;28;20204;-66
2022/08/02 01:31:31;;;;;;;10.65;8.40;;;;;;;;;;2057705;28;20198;-65
2022/08/02 01:32:34;;;;;;;12.68;7.60;;;;;;;;;;2057637;28;20308;-63
2022/08/02 01:33:38;;;;;;;11.25;7.97;;;;;;;;;;2057496;28;20190;-64
2022/08/02 01:34:38;;;;;;;12.40;8.23;;;;;;;;;;2057037;28;20208;-64
2022/08/02 01:35:40;;;;;;;10.52;7.88;;;;;;;;;;2057488;28;20662;-65
2022/08/02 01:36:42;;;;;;;13.13;8.38;;;;;;;;;;2057715;28;20182;-65
2022/08/02 01:37:48;;;;;;;10.52;8.45;;;;;;;;;;2057520;28;20623;-66
2022/08/02 01:38:52;;;;;;;10.85;7.50;;;;;;;;;;2057757;28;20201;-65
2022/08/02 01:40:12;;;;;;;12.93;8.40;;;;;;;;;;2057897;28;20182;-66
2022/08/02 01:41:15;;;;;;;11.43;8.18;;;;;;;;;;2057101;28;20205;-63
2022/08/02 01:42:17;;;;;;;11.50;7.82;;;;;;;;;;2062313;28;20276;-65
2022/08/02 01:43:19;;;;;;;9.73;7.75;;;;;;;;;;2065909;28;20280;-66
2022/08/02 01:44:20;;;;;;;14.15;8.68;;;;;;;;;;2064804;28;20267;-65
2022/08/02 01:45:23;;;;;;;14.85;8.38;;;;;;;;;;2065686;28;20203;-65
2022/08/02 01:46:24;;;;;;;10.13;7.53;;;;;;;;;;2065523;28;20543;-64
2022/08/02 01:47:29;;;;;;;11.52;8.45;;;;;;;;;;2065553;28;20646;-65
2022/08/02 01:48:30;;;;;;;12.73;7.88;;;;;;;;;;2065506;28;20232;-66
2022/08/02 01:49:31;;;;;;;14.32;7.95;;;;;;;;;;2065682;28;20553;-65
2022/08/02 01:50:33;;;;;;;9.93;8.15;;;;;;;;;;2065360;28;20229;-67
2022/08/02 01:52:56;;;;;;;10.52;8.73;;;;;;;;;;2065547;28;20205;-65
2022/08/02 01:53:56;;;;;;;12.60;8.20;;;;;;;;;;2065065;28;20245;-66
2022/08/02 01:54:58;;;;;;;10.38;7.72;;;;;;;;;;2064930;28;20228;-66
2022/08/02 01:55:59;;;;;;;11.68;8.02;;;;;;;;;;2065428;28;20249;-65
2022/08/02 01:57:01;;;;;;;10.57;8.82;;;;;;;;;;2065364;28;20635;-65
2022/08/02 01:58:03;;;;;;;11.77;7.80;;;;;;;;;;2065438;28;20190;-65
2022/08/02 01:59:04;;;;;;;9.85;8.27;;;;;;;;;;2065451;28;20541;-66
2022/08/02 02:00:08;;;;;;;12.00;8.18;;;;;;;;;;2064783;28;20168;-66
2022/08/02 02:01:09;;;;;;;11.32;7.97;;;;;;;;;;2064792;28;20208;-66
2022/08/02 02:02:11;;;;;;;9.68;8.27;;;;;;;;;;2065523;28;20157;-65
2022/08/02 02:03:12;;;;;;;12.07;8.07;;;;;;;;;;2065304;28;20178;-65
2022/08/02 02:04:14;;;;;;;15.27;8.63;;;;;;;;;;2065529;28;20228;-64
2022/08/02 02:05:15;;;;;;;14.48;8.60;;;;;;;;;;2066354;28;20710;-64
2022/08/02 02:06:17;;;;;;;13.20;8.43;;;;;;;;;;2065432;28;20169;-65
2022/08/02 02:07:18;;;;;;;9.15;7.85;;;;;;;;;;2065559;28;20176;-65
2022/08/02 02:08:20;;;;;;;12.35;8.68;;;;;;;;;;2066204;28;20685;-64
2022/08/02 02:09:20;;;;;;;11.35;7.38;;;;;;;;;;2066122;28;20510;-65
2022/08/02 02:10:24;;;;;;;10.65;8.48;;;;;;;;;;2065929;28;20309;-66
2022/08/02 02:11:24;;;;;;;9.73;8.20;;;;;;;;;;2065680;28;20642;-65
2022/08/02 02:12:26;;;;;;;11.90;8.10;;;;;;;;;;2065961;28;20220;-64
2022/08/02 02:13:26;;;;;;;8.57;7.50;;;;;;;;;;2065735;28;20170;-65
2022/08/02 02:14:27;;;;;;;10.60;7.63;;;;;;;;;;2064557;28;20217;-61
2022/08/02 02:15:29;;;;;;;9.73;8.00;;;;;;;;;;2065340;28;20185;-66
2022/08/02 02:16:31;;;;;;;9.70;8.65;;;;;;;;;;2065479;28;20177;-60
2022/08/02 02:17:31;;;;;;;9.63;7.82;;;;;;;;;;2065574;28;20552;-64
2022/08/02 02:18:33;;;;;;;9.25;7.82;;;;;;;;;;2073052;28;20184;-65
2022/08/02 02:19:35;;;;;;;9.40;8.27;;;;;;;;;;2072742;28;20635;-66
2022/08/02 02:20:35;;;;;;;8.85;7.57;;;;;;;;;;2065096;28;20209;-66
2022/08/02 02:21:36;;;;;;;10.80;8.60;;;;;;;;;;2064549;28;20169;-66
2022/08/02 02:22:36;;;;;;;9.07;8.18;;;;;;;;;;2065306;28;20615;-65
2022/08/02 02:23:37;;;;;;;10.15;8.13;;;;;;;;;;2065132;28;20201;-64
2022/08/02 02:24:37;;;;;;;9.63;8.63;;;;;;;;;;2064512;28;20217;-64
2022/08/02 02:25:39;;;;;;;13.63;9.02;;;;;;;;;;2065241;28;20652;-67
2022/08/02 02:26:41;;;;;;;12.10;8.65;;;;;;;;;;2065209;28;20182;-62
2022/08/02 02:27:47;;;;;;;9.20;7.75;;;;;;;;;;2065205;28;20263;-65
2022/08/02 02:28:48;;;;;;;10.77;8.88;;;;;;;;;;2062414;28;20170;-64
2022/08/02 02:29:49;;;;;;;10.52;7.88;;;;;;;;;;2064427;28;20234;-64
2022/08/02 02:30:53;;;;;;;9.23;7.85;;;;;;;;;;2065459;28;20200;-65
2022/08/02 02:31:54;;;;;;;9.48;7.78;;;;;;;;;;2065018;28;20244;-65
2022/08/02 02:32:57;;;;;;;10.60;8.02;;;;;;;;;;2065303;28;20190;-65
2022/08/02 02:34:00;;;;;;;10.45;8.57;;;;;;;;;;2064589;28;20229;-62
2022/08/02 02:35:02;;;;;;;13.90;8.60;;;;;;;;;;2065158;28;20189;-65
2022/08/02 02:36:03;;;;;;;12.23;8.63;;;;;;;;;;2065026;28;20166;-65
2022/08/02 02:37:04;;;;;;;10.85;8.88;;;;;;;;;;2065177;28;20232;-62
2022/08/02 02:38:06;;;;;;;11.88;8.65;;;;;;;;;;2062323;28;20566;-66
2022/08/02 02:39:08;;;;;;;12.05;8.25;;;;;;;;;;2065138;28;20169;-65
2022/08/02 02:40:10;;;;;;;11.35;9.10;;;;;;;;;;2065023;28;20689;-65
2022/08/02 02:41:11;;;;;;;11.05;8.25;;;;;;;;;;2065077;28;20790;-64
2022/08/02 02:42:13;;;;;;;14.00;8.35;;;;;;;;;;2064927;28;20260;-67
2022/08/02 02:43:14;;;;;;;13.18;8.65;;;;;;;;;;2065021;28;20250;-65
2022/08/02 02:44:17;;;;;;;12.15;8.10;;;;;;;;;;2064065;28;20193;-64
2022/08/02 02:45:19;;;;;;;11.88;8.18;;;;;;;;;;2065109;28;20185;-65
2022/08/02 02:46:20;;;;;;;15.35;8.43;;;;;;;;;;2064972;28;20173;-64
2022/08/02 02:47:21;;;;;;;9.27;7.82;;;;;;;;;;2064899;28;20181;-64
2022/08/02 02:48:22;;;;;;;10.30;8.10;;;;;;;;;;2065071;28;20170;-61
2022/08/02 02:49:22;;;;;;;15.02;8.60;;;;;;;;;;2064908;28;20196;-64
2022/08/02 02:50:23;;;;;;;11.52;8.57;;;;;;;;;;2065053;28;20256;-66
2022/08/02 02:51:23;;;;;;;12.60;8.63;;;;;;;;;;2064967;28;20165;-66
2022/08/02 02:52:24;;;;;;;11.27;8.05;;;;;;;;;;2064573;28;20725;-65
2022/08/02 02:53:25;;;;;;;14.25;8.38;;;;;;;;;;2061621;28;20181;-64
2022/08/02 02:54:27;;;;;;;13.38;8.75;;;;;;;;;;2064098;28;20221;-66
2022/08/02 02:55:30;;;;;;;11.05;7.55;;;;;;;;;;2064813;28;20204;-65
2022/08/02 02:56:31;;;;;;;10.05;8.55;;;;;;;;;;2064927;28;20185;-65
2022/08/02 02:57:32;;;;;;;12.32;8.95;;;;;;;;;;2064916;28;20166;-65
2022/08/02 02:58:32;;;;;;;14.27;8.90;;;;;;;;;;2065084;28;20667;-65
2022/08/02 02:59:34;;;;;;;10.77;8.30;;;;;;;;;;2064882;28;20201;-64
2022/08/02 03:01:53;;;;;;;12.75;7.95;;;;;;;;;;2062677;28;20646;-65
2022/08/02 03:02:53;;;;;;;10.15;8.23;;;;;;;;;;2064433;28;20188;-66
2022/08/02 03:03:54;;;;;;;15.43;8.38;;;;;;;;;;2064462;28;20173;-64
2022/08/02 03:04:55;;;;;;;10.32;8.88;;;;;;;;;;2064466;28;20161;-66
2022/08/02 03:05:56;;;;;;;11.20;8.40;;;;;;;;;;2064901;28;20166;-64
2022/08/02 03:06:56;;;;;;;8.75;7.82;;;;;;;;;;2064964;28;20177;-65
2022/08/02 03:07:56;;;;;;;12.45;8.48;;;;;;;;;;2064932;28;20192;-65
2022/08/02 03:08:57;;;;;;;10.40;7.70;;;;;;;;;;2065395;28;20196;-65
2022/08/02 03:09:57;;;;;;;9.50;8.05;;;;;;;;;;2064884;28;20170;-64
2022/08/02 03:10:57;;;;;;;9.50;8.30;;;;;;;;;;2064239;28;20297;-64
2022/08/02 03:11:58;;;;;;;10.35;8.43;;;;;;;;;;2064360;28;20554;-63
2022/08/02 03:12:58;;;;;;;9.80;8.75;;;;;;;;;;2064806;28;20220;-64
2022/08/02 03:13:59;;;;;;;10.07;8.07;;;;;;;;;;2064068;28;20296;-63
2022/08/02 03:15:00;;;;;;;11.32;8.65;;;;;;;;;;2065065;28;20241;-64
2022/08/02 03:16:01;;;;;;;10.88;8.30;;;;;;;;;;2064225;28;20673;-65
2022/08/02 03:17:02;;;;;;;11.95;7.85;;;;;;;;;;2064379;28;20173;-64
2022/08/02 03:18:02;;;;;;;11.80;8.05;;;;;;;;;;2064786;28;20169;-64
2022/08/02 03:19:03;;;;;;;12.95;8.20;;;;;;;;;;2065524;28;20214;-64
2022/08/02 03:20:07;;;;;;;12.23;8.27;;;;;;;;;;2065787;28;20165;-65
2022/08/02 03:21:10;;;;;;;12.70;8.80;;;;;;;;;;2063747;28;20179;-65
2022/08/02 03:22:10;;;;;;;13.90;8.30;;;;;;;;;;2067182;28;20181;-64
2022/08/02 03:23:11;;;;;;;16.48;8.02;;;;;;;;;;2066640;28;20597;-64
2022/08/02 03:24:11;;;;;;;16.23;8.35;;;;;;;;;;2065679;28;20547;-66
2022/08/02 03:25:13;;;;;;;13.43;8.68;;;;;;;;;;2066521;28;20548;-64
2022/08/02 03:26:13;;;;;;;9.68;8.15;;;;;;;;;;2066787;28;20178;-65
2022/08/02 03:27:13;;;;;;;12.13;8.50;;;;;;;;;;2066871;28;20631;-64
2022/08/02 03:28:14;;;;;;;14.07;10.75;;;;;;;;;;2066439;28;20189;-63
2022/08/02 03:29:14;;;;;;;9.40;8.40;;;;;;;;;;2066465;28;20657;-64
2022/08/02 03:30:15;;;;;;;11.95;8.52;;;;;;;;;;2066504;28;20654;-64
2022/08/02 03:31:15;;;;;;;14.35;8.80;;;;;;;;;;2066596;28;20200;-64
2022/08/02 03:32:15;;;;;;;11.27;8.35;;;;;;;;;;2066579;28;20659;-64
2022/08/02 03:33:16;;;;;;;12.10;8.20;;;;;;;;;;2066485;28;20189;-65
2022/08/02 03:34:17;;;;;;;13.93;8.68;;;;;;;;;;2065572;28;20220;-64
2022/08/02 03:35:18;;;;;;;12.07;9.30;;;;;;;;;;2066355;28;20199;-64
2022/08/02 03:36:19;;;;;;;11.38;8.40;;;;;;;;;;2066423;28;20264;-64
2022/08/02 03:37:20;;;;;;;12.57;8.32;;;;;;;;;;2065865;28;20175;-67
2022/08/02 03:38:22;;;;;;;10.98;8.05;;;;;;;;;;2066093;28;20556;-65
2022/08/02 03:39:23;;;;;;;12.25;8.35;;;;;;;;;;2066253;28;20554;-63
2022/08/02 03:40:24;;;;;;;10.57;9.25;;;;;;;;;;2066276;28;20212;-64
2022/08/02 03:41:25;;;;;;;10.45;9.40;;;;;;;;;;2063535;28;20186;-65
2022/08/02 03:42:26;;;;;;;11.05;8.63;;;;;;;;;;2066209;28;20169;-64
2022/08/02 03:43:27;;;;;;;11.93;8.80;;;;;;;;;;2073768;28;20173;-66
2022/08/02 03:44:28;;;;;;;11.55;8.98;;;;;;;;;;2072838;28;20234;-61
2022/08/02 03:45:29;;;;;;;11.95;8.75;;;;;;;;;;2066374;28;20173;-65
2022/08/02 03:46:30;;;;;;;15.80;9.15;;;;;;;;;;2066420;28;20174;-63
2022/08/02 03:47:31;;;;;;;11.25;9.07;;;;;;;;;;2066219;28;20202;-64
2022/08/02 03:48:32;;;;;;;12.00;9.57;;;;;;;;;;2066292;28;20173;-65
2022/08/02 03:49:33;;;;;;;12.82;9.70;;;;;;;;;;2066147;28;20165;-63
2022/08/02 03:50:35;;;;;;;14.63;10.07;;;;;;;;;;2073901;28;20521;-64
2022/08/02 03:51:35;;;;;;;13.38;9.30;;;;;;;;;;2073627;28;20316;-66
2022/08/02 03:52:36;;;;;;;16.95;10.23;;;;;;;;;;2066455;28;20177;-63
2022/08/02 03:53:36;;;;;;;13.40;9.27;;;;;;;;;;2066225;28;20754;-63
2022/08/02 03:54:37;;;;;;;13.82;9.27;;;;;;;;;;2065283;28;20193;-63
2022/08/02 03:55:38;;;;;;;14.82;9.43;;;;;;;;;;2065990;28;20264;-67
2022/08/02 03:56:39;;;;;;;12.60;8.85;;;;;;;;;;2066206;28;20197;-63
2022/08/02 03:57:40;;;;;;;14.27;9.85;;;;;;;;;;2065556;28;20188;-65
2022/08/02 03:58:41;;;;;;;13.90;8.52;;;;;;;;;;2065610;28;20224;-65
2022/08/02 03:59:45;;;;;;;10.93;8.55;;;;;;;;;;2066068;28;20178;-64
2022/08/02 04:00:45;;;;;;;13.52;9.82;;;;;;;;;;2060248;28;20202;-65
2022/08/02 04:01:46;;;;;;;14.88;8.70;;;;;;;;;;2062627;28;20654;-65
2022/08/02 04:02:46;;;;;;;14.00;8.95;;;;;;;;;;2063708;28;20182;-65
2022/08/02 04:03:47;;;;;;;10.38;9.27;;;;;;;;;;2066039;28;20174;-64
2022/08/02 04:04:47;;;;;;;11.07;9.50;;;;;;;;;;2065631;28;20185;-64
2022/08/02 04:05:48;;;;;;;13.25;9.02;;;;;;;;;;2066434;28;20634;-64
2022/08/02 04:06:48;;;;;;;14.25;9.02;;;;;;;;;;2066471;28;20252;-64
2022/08/02 04:07:49;;;;;;;10.82;8.63;;;;;;;;;;2066190;28;20196;-64
2022/08/02 04:08:51;;;;;;;14.13;10.55;;;;;;;;;;2066352;28;20178;-66
2022/08/02 04:09:52;;;;;;;12.32;9.30;;;;;;;;;;2066316;28;20249;-64
2022/08/02 04:12:11;;;;;;;13.40;9.30;;;;;;;;;;2064329;28;20213;-64
2022/08/02 04:13:11;;;;;;;13.93;8.65;;;;;;;;;;2066385;28;20675;-64
2022/08/02 04:14:12;;;;;;;15.18;9.68;;;;;;;;;;2065405;28;20691;-63
2022/08/02 04:15:13;;;;;;;12.75;8.82;;;;;;;;;;2066671;28;20189;-66
2022/08/02 04:16:22;;;;;;;11.93;8.80;;;;;;;;;;2067219;28;20220;-64
2022/08/02 04:17:24;;;;;;;14.02;9.30;;;;;;;;;;2067675;28;20182;-64
2022/08/02 04:18:26;;;;;;;13.02;9.63;;;;;;;;;;2067238;28;20174;-64
2022/08/02 04:19:30;;;;;;;12.65;9.50;;;;;;;;;;2064845;28;20182;-65
2022/08/02 04:20:34;;;;;;;11.07;9.13;;;;;;;;;;2066850;28;20268;-64
2022/08/02 04:21:39;;;;;;;13.80;9.93;;;;;;;;;;2067142;28;20170;-66
2022/08/02 04:22:44;;;;;;;11.25;8.82;;;;;;;;;;2068097;28;20185;-66
2022/08/02 04:23:46;;;;;;;14.50;10.05;;;;;;;;;;2063897;28;20182;-65
2022/08/02 04:24:49;;;;;;;12.45;9.85;;;;;;;;;;2063701;28;20177;-65
2022/08/02 04:25:50;;;;;;;14.20;9.32;;;;;;;;;;2065606;28;20166;-66
2022/08/02 04:26:52;;;;;;;12.85;10.23;;;;;;;;;;2066687;28;20574;-65
2022/08/02 04:27:53;;;;;;;15.75;9.98;;;;;;;;;;2066850;28;20531;-66
2022/08/02 04:28:53;;;;;;;11.57;10.02;;;;;;;;;;2067024;28;20176;-65
2022/08/02 04:29:54;;;;;;;14.95;10.35;;;;;;;;;;2066588;28;20173;-66
2022/08/02 04:30:55;;;;;;;17.80;10.35;;;;;;;;;;2064480;28;20208;-65
2022/08/02 04:31:55;;;;;;;12.60;10.25;;;;;;;;;;2065872;28;20178;-67
2022/08/02 04:32:56;;;;;;;12.00;9.57;;;;;;;;;;2073821;28;20184;-62
2022/08/02 04:33:56;;;;;;;17.25;10.32;;;;;;;;;;2066294;28;20638;-66
2022/08/02 04:34:57;;;;;;;11.18;10.05;;;;;;;;;;2066454;28;20188;-65
2022/08/02 04:35:57;;;;;;;16.45;10.45;;;;;;;;;;2067396;28;20181;-66
2022/08/02 04:36:58;;;;;;;13.32;9.68;;;;;;;;;;2066524;28;20180;-67
2022/08/02 04:37:59;;;;;;;13.95;9.57;;;;;;;;;;2066061;28;20227;-66
2022/08/02 04:38:59;;;;;;;12.10;9.32;;;;;;;;;;2066173;28;20181;-66
2022/08/02 04:39:59;;;;;;;11.25;9.40;;;;;;;;;;2065902;28;20169;-63
2022/08/02 04:41:00;;;;;;;9.98;8.85;;;;;;;;;;2065763;28;20737;-66
2022/08/02 04:42:00;;;;;;;10.98;9.10;;;;;;;;;;2074041;28;20169;-64
2022/08/02 04:43:01;;;;;;;12.25;9.20;;;;;;;;;;2073945;28;20180;-63
2022/08/02 04:44:01;;;;;;;15.20;9.02;;;;;;;;;;2065486;28;20686;-63
2022/08/02 04:45:02;;;;;;;14.65;9.45;;;;;;;;;;2065932;28;20836;-64
2022/08/02 04:46:02;;;;;;;10.65;8.82;;;;;;;;;;2065954;28;20304;-66
2022/08/02 04:47:04;;;;;;;13.98;9.52;;;;;;;;;;2066301;28;20577;-65
2022/08/02 04:48:04;;;;;;;12.98;8.68;;;;;;;;;;2065956;28;20642;-66
2022/08/02 04:49:05;;;;;;;11.80;9.15;;;;;;;;;;2065701;28;20216;-64
2022/08/02 04:50:05;;;;;;;11.60;8.32;;;;;;;;;;2063098;28;20598;-65
2022/08/02 04:51:06;;;;;;;10.57;8.77;;;;;;;;;;2066304;28;20173;-66
2022/08/02 04:52:06;;;;;;;13.30;8.90;;;;;;;;;;2065528;28;20568;-66
2022/08/02 04:53:07;;;;;;;9.32;8.10;;;;;;;;;;2065847;28;20184;-65
2022/08/02 04:54:08;;;;;;;13.80;9.13;;;;;;;;;;2066842;28;20189;-64
2022/08/02 04:55:08;;;;;;;18.58;9.52;;;;;;;;;;2067536;28;20559;-64
2022/08/02 04:56:09;;;;;;;16.10;8.98;;;;;;;;;;2069692;28;20216;-64
2022/08/02 04:58:28;;;;;;;9.73;7.80;;;;;;;;;;2063889;28;20252;-55
2022/08/02 04:59:28;;;;;;;12.68;9.13;;;;;;;;;;2066469;28;20740;-64
2022/08/02 05:00:29;;;;;;;10.40;8.38;;;;;;;;;;2065418;28;20721;-61
2022/08/02 05:01:29;;;;;;;13.90;9.13;;;;;;;;;;2065973;28;20200;-64
2022/08/02 05:02:29;;;;;;;11.48;9.50;;;;;;;;;;2065781;28;20166;-64
2022/08/02 05:03:30;;;;;;;10.30;8.43;;;;;;;;;;2066039;28;20546;-65
2022/08/02 05:04:30;;;;;;;11.75;8.95;;;;;;;;;;2064685;28;20272;-65
2022/08/02 05:05:30;;;;;;;11.65;8.90;;;;;;;;;;2065744;28;20169;-63
2022/08/02 05:06:31;;;;;;;8.70;7.88;;;;;;;;;;2065520;28;20174;-65
2022/08/02 05:07:31;;;;;;;10.13;8.93;;;;;;;;;;2065398;28;20173;-63
2022/08/02 05:08:31;;;;;;;10.50;8.35;;;;;;;;;;2064828;28;20216;-63
2022/08/02 05:09:32;;;;;;;8.98;8.13;;;;;;;;;;2065055;28;20168;-66
2022/08/02 05:10:32;;;;;;;11.98;8.13;;;;;;;;;;2065503;28;20221;-65
2022/08/02 05:11:32;;;;;;;8.75;7.65;;;;;;;;;;2065689;28;20174;-64
2022/08/02 05:12:32;;;;;;;8.98;7.32;;;;;;;;;;2065005;28;20165;-64
2022/08/02 05:13:33;;;;;;;11.73;7.78;;;;;;;;;;2065065;28;20189;-64
2022/08/02 05:14:33;;;;;;;9.88;7.95;;;;;;;;;;2071839;28;20263;-65
2022/08/02 05:15:33;;;;;;;10.30;8.05;;;;;;;;;;2065674;28;20662;-64
2022/08/02 05:16:34;;;;;;;12.00;7.70;;;;;;;;;;2065540;28;20192;-64
2022/08/02 05:17:34;;;;;;;8.55;6.95;;;;;;;;;;2065603;28;20176;-65
2022/08/02 05:18:34;;;;;;;9.57;7.63;;;;;;;;;;2065431;28;20278;-64
2022/08/02 05:19:35;;;;;;;9.77;7.07;;;;;;;;;;2065706;28;20181;-65
2022/08/02 05:20:35;;;;;;;9.98;7.22;;;;;;;;;;2065405;28;20379;-64
2022/08/02 05:21:35;;;;;;;8.15;6.85;;;;;;;;;;2065696;28;20161;-64
2022/08/02 05:22:36;;;;;;;9.70;6.75;;;;;;;;;;2066451;28;20206;-64
2022/08/02 05:23:36;;;;;;;10.32;6.95;;;;;;;;;;2065487;28;20654;-65
2022/08/02 05:24:36;;;;;;;9.70;7.25;;;;;;;;;;2064507;28;20644;-65
2022/08/02 05:25:37;;;;;;;8.27;6.88;;;;;;;;;;2065498;28;20515;-64
2022/08/02 05:26:37;;;;;;;7.78;6.78;;;;;;;;;;2065377;28;20642;-64
2022/08/02 05:27:37;;;;;;;11.45;7.45;;;;;;;;;;2064622;28;20294;-65
2022/08/02 05:28:38;;;;;;;12.45;7.65;;;;;;;;;;2064783;28;20178;-64
2022/08/02 05:29:38;;;;;;;15.27;7.30;;;;;;;;;;2065301;28;20181;-61
2022/08/02 05:30:39;;;;;;;8.00;7.13;;;;;;;;;;2065488;28;20173;-64
2022/08/02 05:31:39;;;;;;;9.18;6.75;;;;;;;;;;2064655;28;20654;-62
2022/08/02 05:32:43;;;;;;;7.43;6.75;;;;;;;;;;2064955;28;20177;-63
2022/08/02 05:33:43;;;;;;;9.02;6.95;;;;;;;;;;2064906;28;20182;-62
2022/08/02 05:34:44;;;;;;;9.20;7.03;;;;;;;;;;2064483;28;20170;-65
2022/08/02 05:35:44;;;;;;;11.18;7.40;;;;;;;;;;2065133;28;20227;-65
2022/08/02 05:36:44;;;;;;;7.57;6.88;;;;;;;;;;2065172;28;20173;-63
2022/08/02 05:37:46;;;;;;;9.23;7.28;;;;;;;;;;2065148;28;20181;-63
2022/08/02 05:38:46;;;;;;;9.93;6.50;;;;;;;;;;2065249;28;20191;-65
2022/08/02 05:39:46;;;;;;;13.73;7.35;;;;;;;;;;2065086;28;20176;-64
2022/08/02 05:40:47;;;;;;;7.47;5.93;;;;;;;;;;2064987;28;20201;-64
2022/08/02 05:41:48;;;;;;;8.77;7.05;;;;;;;;;;2064678;28;20664;-66
2022/08/02 05:42:48;;;;;;;12.88;6.85;;;;;;;;;;2065230;28;20217;-65
2022/08/02 05:43:48;;;;;;;9.43;6.15;;;;;;;;;;2065231;28;20235;-64
2022/08/02 05:44:48;;;;;;;12.15;6.57;;;;;;;;;;2064681;28;20162;-64
2022/08/02 05:45:49;;;;;;;8.07;7.15;;;;;;;;;;2065274;28;20795;-65
2022/08/02 05:46:50;;;;;;;8.45;6.28;;;;;;;;;;2065527;28;20678;-65
2022/08/02 05:47:50;;;;;;;7.70;6.00;;;;;;;;;;2065324;28;20670;-65
2022/08/02 05:48:50;;;;;;;8.82;5.82;;;;;;;;;;2065445;28;20173;-64
2022/08/02 05:49:51;;;;;;;7.82;6.50;;;;;;;;;;2065011;28;20173;-65
2022/08/02 05:50:58;;;;;;;9.43;6.30;;;;;;;;;;2065164;28;20185;-65
2022/08/02 05:51:59;;;;;;;11.32;6.43;;;;;;;;;;2064046;28;20557;-64
2022/08/02 05:53:03;;;;;;;7.22;6.57;;;;;;;;;;2062851;28;20173;-66
2022/08/02 05:54:03;;;;;;;10.88;6.72;;;;;;;;;;2058642;28;20232;-65
2022/08/02 05:55:06;;;;;;;9.75;6.60;;;;;;;;;;2062579;28;20192;-65
2022/08/02 05:56:20;;;;;;;10.38;6.68;;;;;;;;;;2064351;28;20182;-66
2022/08/02 05:57:30;;;;;;;11.48;6.70;;;;;;;;;;2064627;28;20173;-65
2022/08/02 05:58:39;;;;;;;9.90;6.57;;;;;;;;;;2062872;28;20646;-65
2022/08/02 05:59:44;;;;;;;8.60;6.13;;;;;;;;;;2064477;28;20173;-65
2022/08/02 06:00:48;;;;;;;8.55;6.25;;;;;;;;;;2064699;28;20201;-66
2022/08/02 06:01:51;;;;;;;7.63;6.00;;;;;;;;;;2062804;28;20256;-64
2022/08/02 06:03:17;;;;;;;8.93;6.30;;;;;;;;;;2065160;28;20620;-65
2022/08/02 06:04:24;;;;;;;10.68;6.05;;;;;;;;;;2058108;28;20292;-66
2022/08/02 06:05:26;;;;;;;8.70;5.38;;;;;;;;;;2054524;28;20182;-66
2022/08/02 06:06:28;;;;;;;7.97;6.03;;;;;;;;;;2062038;28;20595;-65
2022/08/02 06:07:29;;;;;;;7.80;6.00;;;;;;;;;;2065196;28;20165;-66
2022/08/02 06:08:36;;;;;;;8.07;6.40;;;;;;;;;;2065159;28;20654;-64
2022/08/02 06:09:37;;;;;;;6.90;6.20;;;;;;;;;;2065178;28;20165;-65
2022/08/02 06:10:39;;;;;;;7.93;5.93;;;;;;;;;;2064676;28;20592;-66